createdAt,value
2023-03-22T00:02:05.419Z,59.00
2023-03-22T00:04:32.834Z,59.63
2023-03-22T00:06:59.965Z,62.45
2023-03-22T00:09:27.148Z,54.25
2023-03-22T00:11:54.266Z,58.75
2023-03-22T00:14:21.360Z,59.50
2023-03-22T00:16:49.259Z,61.58
2023-03-22T00:19:17.408Z,58.85
2023-03-22T00:21:44.663Z,58.33
2023-03-22T00:24:11.803Z,62.20
2023-03-22T00:26:38.871Z,56.20
2023-03-22T00:29:06.001Z,57.55
2023-03-22T00:31:33.180Z,51.70
2023-03-22T00:34:00.300Z,53.10
2023-03-22T00:36:27.421Z,58.03
2023-03-22T00:38:54.524Z,65.57
2023-03-22T00:41:22.309Z,70.75
2023-03-22T00:43:49.897Z,60.03
2023-03-22T00:46:17.906Z,52.65
2023-03-22T00:48:45.111Z,59.97
2023-03-22T00:51:12.493Z,47.78
2023-03-22T00:53:42.594Z,53.30
2023-03-22T00:56:10.797Z,62.00
2023-03-22T00:58:37.907Z,56.22
2023-03-22T01:01:05.224Z,61.08
2023-03-22T01:03:33.220Z,67.88
2023-03-22T01:06:01.066Z,62.65
2023-03-22T01:08:33.026Z,60.65
2023-03-22T01:11:01.105Z,56.50
2023-03-22T01:13:28.844Z,51.67
2023-03-22T01:15:56.029Z,57.30
2023-03-22T01:18:23.144Z,59.30
2023-03-22T01:20:50.293Z,66.43
2023-03-22T01:23:17.405Z,69.93
2023-03-22T01:25:44.551Z,68.95
2023-03-22T01:28:11.686Z,59.92
2023-03-22T01:30:42.148Z,67.35
2023-03-22T01:33:09.518Z,71.38
2023-03-22T01:35:36.908Z,57.42
2023-03-22T01:38:04.550Z,66.78
2023-03-22T01:40:31.808Z,54.05
2023-03-22T01:42:58.918Z,44.72
2023-03-22T01:45:36.439Z,59.10
2023-03-22T01:48:22.571Z,61.15
2023-03-22T01:51:13.237Z,55.65
2023-03-22T01:53:41.466Z,56.35
2023-03-22T01:56:09.014Z,54.42
2023-03-22T01:58:37.390Z,56.83
2023-03-22T02:01:05.020Z,62.70
2023-03-22T02:03:37.812Z,71.35
2023-03-22T02:06:04.961Z,62.58
2023-03-22T02:08:32.058Z,64.82
2023-03-22T02:10:59.188Z,56.90
2023-03-22T02:13:29.204Z,58.23
2023-03-22T02:16:03.227Z,65.20
2023-03-22T02:18:39.254Z,55.60
2023-03-22T02:21:12.438Z,55.72
2023-03-22T02:23:45.663Z,63.33
2023-03-22T02:26:31.829Z,53.97
2023-03-22T02:28:58.924Z,55.05
2023-03-22T02:31:28.943Z,49.50
2023-03-22T02:34:15.677Z,52.70
2023-03-22T02:36:42.818Z,52.97
2023-03-22T02:39:28.744Z,52.58
2023-03-22T02:42:04.748Z,47.47
2023-03-22T02:44:46.811Z,47.03
2023-03-22T02:47:20.644Z,53.50
2023-03-22T02:49:50.931Z,46.08
2023-03-22T02:52:35.992Z,47.13
2023-03-22T02:55:06.278Z,54.72
2023-03-22T02:57:38.576Z,51.63
2023-03-22T03:00:11.096Z,43.72
2023-03-22T03:02:38.663Z,53.50
2023-03-22T03:05:05.895Z,58.80
2023-03-22T03:07:32.997Z,56.58
2023-03-22T03:10:00.097Z,50.95
2023-03-22T03:12:28.088Z,52.08
2023-03-22T03:14:55.555Z,45.50
2023-03-22T03:17:28.747Z,45.53
2023-03-22T03:19:55.825Z,45.08
2023-03-22T03:22:25.964Z,48.60
2023-03-22T03:24:58.265Z,53.63
2023-03-22T03:27:57.429Z,54.10
2023-03-22T03:30:32.460Z,55.88
2023-03-22T03:33:01.187Z,48.63
2023-03-22T03:35:37.625Z,65.28
2023-03-22T03:38:08.731Z,60.77
2023-03-22T03:40:37.473Z,58.15
2023-03-22T03:43:04.878Z,63.72
2023-03-22T03:45:32.096Z,64.93
2023-03-22T03:48:03.345Z,65.13
2023-03-22T03:50:30.606Z,68.27
2023-03-22T03:52:57.969Z,64.72
2023-03-22T03:55:25.178Z,51.92
2023-03-22T03:57:52.301Z,56.50
2023-03-22T04:00:19.532Z,45.72
2023-03-22T04:02:46.647Z,53.38
2023-03-22T04:05:13.933Z,47.63
2023-03-22T04:07:41.717Z,53.47
2023-03-22T04:10:08.999Z,44.55
2023-03-22T04:12:36.264Z,40.92
2023-03-22T04:15:03.349Z,47.58
2023-03-22T04:17:32.004Z,48.67
2023-03-22T04:19:59.138Z,48.20
2023-03-22T04:22:26.624Z,46.10
2023-03-22T04:24:53.850Z,52.92
2023-03-22T04:27:21.517Z,50.08
2023-03-22T04:29:48.662Z,52.03
2023-03-22T04:32:18.832Z,49.70
2023-03-22T04:34:49.332Z,52.83
2023-03-22T04:37:16.598Z,49.47
2023-03-22T04:39:43.780Z,47.92
2023-03-22T04:42:11.139Z,45.20
2023-03-22T04:44:38.277Z,45.63
2023-03-22T04:47:05.365Z,41.90
2023-03-22T04:49:32.534Z,45.55
2023-03-22T04:51:59.673Z,38.22
2023-03-22T04:54:26.863Z,35.22
2023-03-22T04:56:53.961Z,39.53
2023-03-22T04:59:21.352Z,39.45
2023-03-22T05:01:48.786Z,31.80
2023-03-22T05:04:16.001Z,36.53
2023-03-22T05:06:43.130Z,37.95
2023-03-22T05:09:10.258Z,42.72
2023-03-22T05:11:37.385Z,53.78
2023-03-22T05:14:04.704Z,38.30
2023-03-22T05:16:31.901Z,33.90
2023-03-22T05:18:59.115Z,39.90
2023-03-22T05:21:29.213Z,41.03
2023-03-22T05:23:56.839Z,42.22
2023-03-22T05:26:26.164Z,45.70
2023-03-22T05:28:56.360Z,38.88
2023-03-22T05:31:23.574Z,38.40
2023-03-22T05:33:51.008Z,45.47
2023-03-22T05:36:18.566Z,40.90
2023-03-22T05:38:46.543Z,42.95
2023-03-22T05:41:14.002Z,41.60
2023-03-22T05:43:41.158Z,40.83
2023-03-22T05:46:08.832Z,42.20
2023-03-22T05:48:36.435Z,39.80
2023-03-22T05:51:03.789Z,44.03
2023-03-22T05:53:31.858Z,41.00
2023-03-22T05:56:00.726Z,38.08
2023-03-22T05:58:28.958Z,36.25
2023-03-22T06:00:56.067Z,43.63
2023-03-22T06:03:24.185Z,41.67
2023-03-22T06:05:51.296Z,34.55
2023-03-22T06:08:18.416Z,37.30
2023-03-22T06:10:45.517Z,31.30
2023-03-22T06:13:12.639Z,29.15
2023-03-22T06:15:39.764Z,36.92
2023-03-22T06:18:06.940Z,32.05
2023-03-22T06:20:35.214Z,34.27
2023-03-22T06:23:02.475Z,33.03
2023-03-22T06:25:29.585Z,34.58
2023-03-22T06:27:56.698Z,31.90
2023-03-22T06:30:23.957Z,29.48
2023-03-22T06:32:51.039Z,27.77
2023-03-22T06:35:18.223Z,29.63
2023-03-22T06:37:45.308Z,25.35
2023-03-22T06:40:12.532Z,30.17
2023-03-22T06:42:39.687Z,25.75
2023-03-22T06:45:07.971Z,23.42
2023-03-22T06:47:35.136Z,25.57
2023-03-22T06:50:02.323Z,24.00
2023-03-22T06:52:29.419Z,24.92
2023-03-22T06:54:56.910Z,24.13
2023-03-22T06:57:24.035Z,24.20
2023-03-22T06:59:51.289Z,21.30
2023-03-22T07:02:18.365Z,26.07
2023-03-22T07:04:46.526Z,23.13
2023-03-22T07:07:13.826Z,26.17
2023-03-22T07:09:40.989Z,21.40
2023-03-22T07:12:08.113Z,20.55
2023-03-22T07:14:35.704Z,20.98
2023-03-22T07:17:02.833Z,21.17
2023-03-22T07:19:30.054Z,17.02
2023-03-22T07:21:57.155Z,15.93
2023-03-22T07:24:24.253Z,16.42
2023-03-22T07:26:51.338Z,16.35
2023-03-22T07:29:18.468Z,18.60
2023-03-22T07:31:45.800Z,17.77
2023-03-22T07:34:12.953Z,17.80
2023-03-22T07:36:49.619Z,19.33
2023-03-22T07:39:16.727Z,18.73
2023-03-22T07:41:43.812Z,15.20
2023-03-22T07:44:17.607Z,17.17
2023-03-22T07:46:45.092Z,16.80
2023-03-22T07:49:12.249Z,15.38
2023-03-22T07:51:39.423Z,14.00
2023-03-22T07:54:07.803Z,13.30
2023-03-22T07:56:35.055Z,12.70
2023-03-22T07:59:02.269Z,13.03
2023-03-22T08:01:29.529Z,16.00
2023-03-22T08:03:56.630Z,16.50
2023-03-22T08:06:23.740Z,11.25
2023-03-22T08:08:50.993Z,11.23
2023-03-22T08:11:18.139Z,9.88
2023-03-22T08:13:45.284Z,9.73
2023-03-22T08:16:12.472Z,11.55
2023-03-22T08:18:39.624Z,8.65
2023-03-22T08:21:07.078Z,9.77
2023-03-22T08:23:41.354Z,9.43
2023-03-22T08:26:09.451Z,8.00
2023-03-22T08:28:36.783Z,8.23
2023-03-22T08:31:10.128Z,10.25
2023-03-22T08:33:37.227Z,11.25
2023-03-22T08:36:05.437Z,7.18
2023-03-22T08:38:32.619Z,9.53
2023-03-22T08:40:59.744Z,8.23
2023-03-22T08:43:26.829Z,6.70
2023-03-22T08:45:53.981Z,10.40
2023-03-22T08:48:21.254Z,13.45
2023-03-22T08:50:48.422Z,9.57
2023-03-22T08:53:15.567Z,9.17
2023-03-22T08:55:44.919Z,9.43
2023-03-22T08:58:16.485Z,10.07
2023-03-22T09:00:49.006Z,12.15
2023-03-22T09:03:16.772Z,12.77
2023-03-22T09:05:44.097Z,11.23
2023-03-22T09:08:18.626Z,8.55
2023-03-22T09:10:51.181Z,11.70
2023-03-22T09:13:18.571Z,11.47
2023-03-22T09:15:45.988Z,9.02
2023-03-22T09:18:13.158Z,12.27
2023-03-22T09:20:40.646Z,11.00
2023-03-22T09:23:07.954Z,9.05
2023-03-22T09:25:35.281Z,10.95
2023-03-22T09:28:02.545Z,9.00
2023-03-22T09:30:29.688Z,11.15
2023-03-22T09:32:56.824Z,10.63
2023-03-22T09:35:24.013Z,12.90
2023-03-22T09:37:53.316Z,11.32
2023-03-22T09:40:20.840Z,12.30
2023-03-22T09:42:51.294Z,11.95
2023-03-22T09:45:25.073Z,14.30
2023-03-22T09:47:53.145Z,12.85
2023-03-22T09:50:24.078Z,12.43
2023-03-22T09:52:51.199Z,14.67
2023-03-22T09:55:19.737Z,12.88
2023-03-22T09:57:47.444Z,14.13
2023-03-22T10:00:34.426Z,14.32
2023-03-22T10:03:21.884Z,12.38
2023-03-22T10:05:50.936Z,16.25
2023-03-22T10:08:18.065Z,13.50
2023-03-22T10:10:45.252Z,11.20
2023-03-22T10:13:16.369Z,13.88
2023-03-22T10:15:50.594Z,13.20
2023-03-22T10:18:23.023Z,12.13
2023-03-22T10:20:54.039Z,11.63
2023-03-22T10:23:22.766Z,12.35
2023-03-22T10:25:49.849Z,10.00
2023-03-22T10:28:19.100Z,11.70
2023-03-22T10:30:50.848Z,11.70
2023-03-22T10:33:21.980Z,11.77
2023-03-22T10:35:49.117Z,11.40
2023-03-22T10:38:20.637Z,12.20
2023-03-22T10:40:47.738Z,12.18
2023-03-22T10:43:18.295Z,10.37
2023-03-22T10:45:45.448Z,10.73
2023-03-22T10:48:17.982Z,10.43
2023-03-22T10:50:46.339Z,9.00
2023-03-22T10:53:25.342Z,10.00
2023-03-22T10:55:52.458Z,9.73
2023-03-22T10:58:20.467Z,7.78
2023-03-22T11:00:51.943Z,9.10
2023-03-22T11:03:29.913Z,8.68
2023-03-22T11:06:16.168Z,9.45
2023-03-22T11:08:47.304Z,6.75
2023-03-22T11:11:16.043Z,7.88
2023-03-22T11:13:43.207Z,8.60
2023-03-22T11:16:10.491Z,6.20
2023-03-22T11:18:37.694Z,8.23
2023-03-22T11:21:06.285Z,6.88
2023-03-22T11:23:34.005Z,12.70
2023-03-22T11:26:06.348Z,6.60
2023-03-22T11:28:37.607Z,8.15
2023-03-22T11:31:17.484Z,9.48
2023-03-22T11:33:53.870Z,8.90
2023-03-22T11:36:20.974Z,8.02
2023-03-22T11:38:48.905Z,8.82
2023-03-22T11:41:25.820Z,8.50
2023-03-22T11:43:54.353Z,7.83
2023-03-22T11:46:21.643Z,8.90
2023-03-22T11:48:49.615Z,8.15
2023-03-22T11:51:20.721Z,9.05
2023-03-22T11:53:48.193Z,8.95
2023-03-22T11:56:19.061Z,9.13
2023-03-22T11:58:46.157Z,8.83
2023-03-22T12:01:15.240Z,9.20
2023-03-22T12:03:42.994Z,10.65
2023-03-22T12:06:36.562Z,9.70
2023-03-22T12:09:06.477Z,9.77
2023-03-22T12:11:34.967Z,9.48
2023-03-22T12:14:03.674Z,10.57
2023-03-22T12:16:33.093Z,7.23
2023-03-22T12:19:05.877Z,10.02
2023-03-22T12:21:33.741Z,9.25
2023-03-22T12:24:02.178Z,9.52
2023-03-22T12:26:29.316Z,7.97
2023-03-22T12:29:06.610Z,10.30
2023-03-22T12:31:38.420Z,7.45
2023-03-22T12:34:23.964Z,8.83
2023-03-22T12:36:51.703Z,8.47
2023-03-22T12:39:42.212Z,5.25
2023-03-22T12:42:14.285Z,6.35
2023-03-22T12:44:44.754Z,6.88
2023-03-22T12:47:13.679Z,8.10
2023-03-22T12:49:41.936Z,6.72
2023-03-22T12:52:14.079Z,7.53
2023-03-22T12:54:41.224Z,8.07
2023-03-22T12:57:08.418Z,6.93
2023-03-22T12:59:35.888Z,7.38
2023-03-22T13:02:16.662Z,8.77
2023-03-22T13:04:43.754Z,9.30
2023-03-22T13:07:16.711Z,8.18
2023-03-22T13:09:47.413Z,7.45
2023-03-22T13:12:17.396Z,6.10
2023-03-22T13:14:56.073Z,6.95
2023-03-22T13:17:23.204Z,6.35
2023-03-22T13:20:00.220Z,5.95
2023-03-22T13:22:28.368Z,6.03
2023-03-22T13:25:07.058Z,6.63
2023-03-22T13:27:35.554Z,6.93
2023-03-22T13:30:04.812Z,5.30
2023-03-22T13:32:33.459Z,6.40
2023-03-22T13:35:00.834Z,6.57
2023-03-22T13:37:54.579Z,5.90
2023-03-22T13:40:35.358Z,6.25
2023-03-22T13:43:14.602Z,5.10
2023-03-22T13:46:00.493Z,5.88
2023-03-22T13:48:30.912Z,8.20
2023-03-22T13:50:58.415Z,4.90
2023-03-22T13:53:33.730Z,6.28
2023-03-22T13:56:03.451Z,7.25
2023-03-22T13:58:36.676Z,6.60
2023-03-22T14:01:07.363Z,6.32
2023-03-22T14:03:38.988Z,4.88
2023-03-22T14:06:17.363Z,7.45
2023-03-22T14:08:44.509Z,6.88
2023-03-22T14:11:20.279Z,6.60
2023-03-22T14:13:51.892Z,6.63
2023-03-22T14:16:21.041Z,8.18
2023-03-22T14:18:48.549Z,4.83
2023-03-22T14:21:26.802Z,5.63
